sensor_id;sensor_type;location;lat;lon;timestamp;pressure;altitude;pressure_sealevel;temperature;humidity
68822;BME280;55834;50.870;4.606;2023-01-05T00:01:25;101195.03;;;8.77;63.43
68822;BME280;55834;50.870;4.606;2023-01-05T00:03:51;101201.88;;;8.90;62.61
68822;BME280;55834;50.870;4.606;2023-01-05T00:06:17;101191.50;;;8.08;65.24
68822;BME280;55834;50.870;4.606;2023-01-05T00:08:43;101204.69;;;8.02;65.46
68822;BME280;55834;50.870;4.606;2023-01-05T00:11:11;101200.00;;;8.32;64.38
68822;BME280;55834;50.870;4.606;2023-01-05T00:13:56;101195.31;;;8.57;63.79
68822;BME280;55834;50.870;4.606;2023-01-05T00:16:41;101193.16;;;8.85;62.60
68822;BME280;55834;50.870;4.606;2023-01-05T00:19:24;101194.88;;;8.20;65.43
68822;BME280;55834;50.870;4.606;2023-01-05T00:22:14;101192.06;;;8.35;64.34
68822;BME280;55834;50.870;4.606;2023-01-05T00:24:58;101189.34;;;8.41;63.49
68822;BME280;55834;50.870;4.606;2023-01-05T00:27:24;101193.03;;;8.26;64.80
68822;BME280;55834;50.870;4.606;2023-01-05T00:29:50;101193.25;;;8.08;65.09
68822;BME280;55834;50.870;4.606;2023-01-05T00:32:15;101195.34;;;8.52;63.40
68822;BME280;55834;50.870;4.606;2023-01-05T00:34:40;101194.47;;;7.68;65.82
68822;BME280;55834;50.870;4.606;2023-01-05T00:37:05;101197.25;;;8.40;64.16
68822;BME280;55834;50.870;4.606;2023-01-05T00:39:31;101187.16;;;8.75;63.23
68822;BME280;55834;50.870;4.606;2023-01-05T00:41:56;101198.25;;;8.97;62.88
68822;BME280;55834;50.870;4.606;2023-01-05T00:44:21;101200.16;;;8.89;62.71
68822;BME280;55834;50.870;4.606;2023-01-05T00:46:47;101197.00;;;8.59;64.02
68822;BME280;55834;50.870;4.606;2023-01-05T00:49:12;101188.88;;;8.08;65.68
68822;BME280;55834;50.870;4.606;2023-01-05T00:51:37;101187.72;;;8.97;62.73
68822;BME280;55834;50.870;4.606;2023-01-05T00:54:02;101200.34;;;8.74;63.21
68822;BME280;55834;50.870;4.606;2023-01-05T00:56:28;101203.22;;;8.54;63.86
68822;BME280;55834;50.870;4.606;2023-01-05T00:58:53;101185.38;;;8.77;62.59
68822;BME280;55834;50.870;4.606;2023-01-05T01:01:19;101187.97;;;8.79;63.07
68822;BME280;55834;50.870;4.606;2023-01-05T01:03:44;101189.47;;;8.98;62.13
68822;BME280;55834;50.870;4.606;2023-01-05T01:06:10;101196.00;;;9.33;61.17
68822;BME280;55834;50.870;4.606;2023-01-05T01:08:35;101198.31;;;8.93;62.00
68822;BME280;55834;50.870;4.606;2023-01-05T01:11:08;101194.63;;;8.43;64.07
68822;BME280;55834;50.870;4.606;2023-01-05T01:13:35;101205.81;;;9.20;61.52
68822;BME280;55834;50.870;4.606;2023-01-05T01:16:11;101214.75;;;9.10;61.46
68822;BME280;55834;50.870;4.606;2023-01-05T01:18:37;101205.84;;;9.19;61.53
68822;BME280;55834;50.870;4.606;2023-01-05T01:21:03;101209.63;;;9.01;62.35
68822;BME280;55834;50.870;4.606;2023-01-05T01:23:29;101212.31;;;8.96;62.11
68822;BME280;55834;50.870;4.606;2023-01-05T01:25:54;101213.09;;;9.04;61.48
68822;BME280;55834;50.870;4.606;2023-01-05T01:28:21;101211.72;;;8.77;62.57
68822;BME280;55834;50.870;4.606;2023-01-05T01:30:47;101216.66;;;8.34;63.40
68822;BME280;55834;50.870;4.606;2023-01-05T01:33:12;101208.00;;;8.23;64.21
68822;BME280;55834;50.870;4.606;2023-01-05T01:35:37;101211.03;;;8.62;64.33
68822;BME280;55834;50.870;4.606;2023-01-05T01:38:03;101212.44;;;8.87;62.47
68822;BME280;55834;50.870;4.606;2023-01-05T01:40:28;101220.53;;;8.75;62.14
68822;BME280;55834;50.870;4.606;2023-01-05T01:42:53;101215.25;;;8.73;62.74
68822;BME280;55834;50.870;4.606;2023-01-05T01:45:24;101240.84;;;8.62;62.68
68822;BME280;55834;50.870;4.606;2023-01-05T01:47:55;101243.94;;;8.24;64.03
68822;BME280;55834;50.870;4.606;2023-01-05T01:50:30;101244.09;;;8.08;64.90
68822;BME280;55834;50.870;4.606;2023-01-05T01:53:01;101251.34;;;7.77;65.62
68822;BME280;55834;50.870;4.606;2023-01-05T01:55:28;101237.94;;;8.09;63.76
68822;BME280;55834;50.870;4.606;2023-01-05T01:57:54;101241.28;;;8.22;64.61
68822;BME280;55834;50.870;4.606;2023-01-05T02:00:20;101239.16;;;8.56;62.80
68822;BME280;55834;50.870;4.606;2023-01-05T02:02:52;101241.44;;;8.11;64.09
68822;BME280;55834;50.870;4.606;2023-01-05T02:05:20;101248.38;;;8.16;64.87
68822;BME280;55834;50.870;4.606;2023-01-05T02:07:47;101251.81;;;8.24;64.78
68822;BME280;55834;50.870;4.606;2023-01-05T02:10:16;101262.53;;;8.05;65.06
68822;BME280;55834;50.870;4.606;2023-01-05T02:13:16;101252.56;;;8.35;64.34
68822;BME280;55834;50.870;4.606;2023-01-05T02:16:13;101253.84;;;8.76;62.90
68822;BME280;55834;50.870;4.606;2023-01-05T02:22:15;101255.81;;;8.58;63.68
68822;BME280;55834;50.870;4.606;2023-01-05T02:30:59;101257.38;;;8.75;62.80
68822;BME280;55834;50.870;4.606;2023-01-05T02:33:39;101260.13;;;8.63;63.40
68822;BME280;55834;50.870;4.606;2023-01-05T02:39:13;101259.84;;;8.87;62.11
68822;BME280;55834;50.870;4.606;2023-01-05T02:42:07;101264.66;;;9.21;61.25
68822;BME280;55834;50.870;4.606;2023-01-05T02:44:34;101260.50;;;9.04;62.03
68822;BME280;55834;50.870;4.606;2023-01-05T02:47:34;101249.97;;;9.03;62.41
68822;BME280;55834;50.870;4.606;2023-01-05T02:49:50;101255.56;;;8.78;62.23
68822;BME280;55834;50.870;4.606;2023-01-05T02:52:18;101246.75;;;8.81;62.24
68822;BME280;55834;50.870;4.606;2023-01-05T02:54:49;101242.38;;;9.43;61.39
68822;BME280;55834;50.870;4.606;2023-01-05T02:57:19;101255.72;;;8.66;63.22
68822;BME280;55834;50.870;4.606;2023-01-05T03:00:08;101266.72;;;8.22;63.99
68822;BME280;55834;50.870;4.606;2023-01-05T03:02:35;101259.00;;;8.08;65.71
68822;BME280;55834;50.870;4.606;2023-01-05T03:05:13;101257.53;;;8.61;63.63
68822;BME280;55834;50.870;4.606;2023-01-05T03:07:42;101264.22;;;8.90;62.23
68822;BME280;55834;50.870;4.606;2023-01-05T03:10:07;101268.78;;;8.74;61.99
68822;BME280;55834;50.870;4.606;2023-01-05T03:12:55;101267.00;;;8.76;63.08
68822;BME280;55834;50.870;4.606;2023-01-05T03:15:41;101276.66;;;7.90;64.68
68822;BME280;55834;50.870;4.606;2023-01-05T03:18:14;101271.38;;;8.78;62.83
68822;BME280;55834;50.870;4.606;2023-01-05T03:20:45;101268.81;;;8.71;62.61
68822;BME280;55834;50.870;4.606;2023-01-05T03:23:14;101272.31;;;8.71;62.44
68822;BME280;55834;50.870;4.606;2023-01-05T03:26:00;101271.38;;;8.78;62.92
68822;BME280;55834;50.870;4.606;2023-01-05T03:28:50;101264.78;;;8.41;63.45
68822;BME280;55834;50.870;4.606;2023-01-05T03:31:46;101263.81;;;8.48;62.71
68822;BME280;55834;50.870;4.606;2023-01-05T03:37:43;101265.75;;;8.32;63.24
68822;BME280;55834;50.870;4.606;2023-01-05T03:40:20;101267.50;;;8.33;63.60
68822;BME280;55834;50.870;4.606;2023-01-05T03:42:46;101263.31;;;8.15;63.79
68822;BME280;55834;50.870;4.606;2023-01-05T03:45:14;101264.31;;;7.96;64.19
68822;BME280;55834;50.870;4.606;2023-01-05T03:47:40;101260.81;;;7.95;63.86
68822;BME280;55834;50.870;4.606;2023-01-05T03:50:06;101264.50;;;8.65;62.92
68822;BME280;55834;50.870;4.606;2023-01-05T03:52:31;101258.69;;;8.37;62.54
68822;BME280;55834;50.870;4.606;2023-01-05T03:54:57;101279.78;;;8.31;63.07
68822;BME280;55834;50.870;4.606;2023-01-05T03:57:22;101285.56;;;8.67;61.74
68822;BME280;55834;50.870;4.606;2023-01-05T03:59:47;101281.97;;;8.71;61.94
68822;BME280;55834;50.870;4.606;2023-01-05T04:02:12;101296.88;;;8.73;61.46
68822;BME280;55834;50.870;4.606;2023-01-05T04:04:38;101289.81;;;8.77;61.37
68822;BME280;55834;50.870;4.606;2023-01-05T04:07:03;101292.75;;;9.22;61.11
68822;BME280;55834;50.870;4.606;2023-01-05T04:09:28;101291.56;;;8.76;61.75
68822;BME280;55834;50.870;4.606;2023-01-05T04:11:54;101287.88;;;8.93;60.85
68822;BME280;55834;50.870;4.606;2023-01-05T04:14:19;101288.69;;;8.96;61.07
68822;BME280;55834;50.870;4.606;2023-01-05T04:16:44;101296.09;;;8.65;62.09
68822;BME280;55834;50.870;4.606;2023-01-05T04:19:10;101287.75;;;9.02;60.57
68822;BME280;55834;50.870;4.606;2023-01-05T04:21:35;101280.25;;;8.70;62.73
68822;BME280;55834;50.870;4.606;2023-01-05T04:24:00;101290.97;;;8.54;62.59
68822;BME280;55834;50.870;4.606;2023-01-05T04:26:26;101293.94;;;8.98;60.61
68822;BME280;55834;50.870;4.606;2023-01-05T04:28:51;101310.28;;;8.52;61.54
68822;BME280;55834;50.870;4.606;2023-01-05T04:31:16;101289.81;;;8.77;61.06
68822;BME280;55834;50.870;4.606;2023-01-05T04:33:42;101298.06;;;8.45;62.25
68822;BME280;55834;50.870;4.606;2023-01-05T04:36:09;101304.81;;;8.72;62.65
68822;BME280;55834;50.870;4.606;2023-01-05T04:38:35;101296.22;;;8.53;61.88
68822;BME280;55834;50.870;4.606;2023-01-05T04:41:00;101292.13;;;8.26;61.77
68822;BME280;55834;50.870;4.606;2023-01-05T04:43:25;101302.69;;;8.21;62.78
68822;BME280;55834;50.870;4.606;2023-01-05T04:45:51;101300.59;;;8.55;61.61
68822;BME280;55834;50.870;4.606;2023-01-05T04:48:16;101301.88;;;8.13;62.99
68822;BME280;55834;50.870;4.606;2023-01-05T04:50:42;101294.19;;;8.78;61.19
68822;BME280;55834;50.870;4.606;2023-01-05T04:53:07;101304.00;;;8.64;61.36
68822;BME280;55834;50.870;4.606;2023-01-05T04:55:33;101310.97;;;8.68;61.44
68822;BME280;55834;50.870;4.606;2023-01-05T04:57:58;101308.97;;;8.02;62.88
68822;BME280;55834;50.870;4.606;2023-01-05T05:00:23;101296.69;;;8.07;61.95
68822;BME280;55834;50.870;4.606;2023-01-05T05:02:49;101300.97;;;8.19;63.03
68822;BME280;55834;50.870;4.606;2023-01-05T05:05:15;101298.81;;;8.57;61.20
68822;BME280;55834;50.870;4.606;2023-01-05T05:07:40;101302.94;;;8.80;60.14
68822;BME280;55834;50.870;4.606;2023-01-05T05:10:06;101295.22;;;8.65;61.14
68822;BME280;55834;50.870;4.606;2023-01-05T05:12:31;101311.72;;;7.86;62.58
68822;BME280;55834;50.870;4.606;2023-01-05T05:14:57;101296.28;;;8.48;61.86
68822;BME280;55834;50.870;4.606;2023-01-05T05:17:22;101302.44;;;8.49;61.97
68822;BME280;55834;50.870;4.606;2023-01-05T05:19:47;101308.53;;;8.52;61.63
68822;BME280;55834;50.870;4.606;2023-01-05T05:22:13;101293.25;;;8.84;60.63
68822;BME280;55834;50.870;4.606;2023-01-05T05:24:38;101297.50;;;8.94;60.71
68822;BME280;55834;50.870;4.606;2023-01-05T05:27:03;101305.97;;;8.45;61.73
68822;BME280;55834;50.870;4.606;2023-01-05T05:29:28;101310.56;;;9.01;60.08
68822;BME280;55834;50.870;4.606;2023-01-05T05:31:54;101311.34;;;8.32;61.73
68822;BME280;55834;50.870;4.606;2023-01-05T05:34:19;101308.66;;;8.40;60.65
68822;BME280;55834;50.870;4.606;2023-01-05T05:36:44;101305.03;;;8.52;61.56
68822;BME280;55834;50.870;4.606;2023-01-05T05:39:14;101309.25;;;8.65;60.70
68822;BME280;55834;50.870;4.606;2023-01-05T05:41:40;101313.69;;;8.63;61.09
68822;BME280;55834;50.870;4.606;2023-01-05T05:44:05;101310.78;;;8.86;60.38
68822;BME280;55834;50.870;4.606;2023-01-05T05:46:31;101324.84;;;8.82;60.55
68822;BME280;55834;50.870;4.606;2023-01-05T05:48:57;101328.22;;;8.93;59.89
68822;BME280;55834;50.870;4.606;2023-01-05T05:51:23;101334.47;;;8.86;60.59
68822;BME280;55834;50.870;4.606;2023-01-05T05:53:48;101346.09;;;8.67;61.37
68822;BME280;55834;50.870;4.606;2023-01-05T05:56:14;101347.94;;;8.60;61.66
68822;BME280;55834;50.870;4.606;2023-01-05T05:58:39;101362.13;;;8.44;61.66
68822;BME280;55834;50.870;4.606;2023-01-05T06:01:05;101344.78;;;9.04;59.98
68822;BME280;55834;50.870;4.606;2023-01-05T06:03:31;101348.25;;;9.08;59.75
68822;BME280;55834;50.870;4.606;2023-01-05T06:05:56;101345.66;;;9.05;59.92
68822;BME280;55834;50.870;4.606;2023-01-05T06:08:21;101351.66;;;9.18;60.01
68822;BME280;55834;50.870;4.606;2023-01-05T06:10:48;101359.25;;;9.42;59.21
68822;BME280;55834;50.870;4.606;2023-01-05T06:13:14;101373.03;;;7.95;63.15
68822;BME280;55834;50.870;4.606;2023-01-05T06:15:41;101364.47;;;8.74;60.89
68822;BME280;55834;50.870;4.606;2023-01-05T06:18:06;101361.38;;;9.13;59.84
68822;BME280;55834;50.870;4.606;2023-01-05T06:20:31;101375.63;;;7.98;63.40
68822;BME280;55834;50.870;4.606;2023-01-05T06:22:57;101376.66;;;8.81;61.75
68822;BME280;55834;50.870;4.606;2023-01-05T06:25:22;101378.66;;;8.56;60.33
68822;BME280;55834;50.870;4.606;2023-01-05T06:27:47;101391.38;;;8.02;63.24
68822;BME280;55834;50.870;4.606;2023-01-05T06:30:13;101384.28;;;8.17;62.73
68822;BME280;55834;50.870;4.606;2023-01-05T06:32:38;101381.59;;;8.24;62.55
68822;BME280;55834;50.870;4.606;2023-01-05T06:35:04;101378.44;;;8.76;61.23
68822;BME280;55834;50.870;4.606;2023-01-05T06:37:29;101382.94;;;8.67;61.87
68822;BME280;55834;50.870;4.606;2023-01-05T06:39:54;101401.34;;;8.68;60.81
68822;BME280;55834;50.870;4.606;2023-01-05T06:42:20;101398.06;;;8.46;61.47
68822;BME280;55834;50.870;4.606;2023-01-05T06:44:45;101394.84;;;8.12;62.71
68822;BME280;55834;50.870;4.606;2023-01-05T06:47:11;101401.69;;;8.34;61.93
68822;BME280;55834;50.870;4.606;2023-01-05T06:49:36;101409.44;;;8.45;61.11
68822;BME280;55834;50.870;4.606;2023-01-05T06:52:01;101409.28;;;8.67;60.71
68822;BME280;55834;50.870;4.606;2023-01-05T06:54:27;101400.34;;;8.81;60.03
68822;BME280;55834;50.870;4.606;2023-01-05T06:56:52;101414.78;;;8.39;61.95
68822;BME280;55834;50.870;4.606;2023-01-05T06:59:17;101419.22;;;8.34;62.04
68822;BME280;55834;50.870;4.606;2023-01-05T07:01:43;101413.41;;;8.92;60.32
68822;BME280;55834;50.870;4.606;2023-01-05T07:04:08;101419.97;;;8.48;61.58
68822;BME280;55834;50.870;4.606;2023-01-05T07:06:34;101411.50;;;9.07;59.85
68822;BME280;55834;50.870;4.606;2023-01-05T07:09:00;101422.63;;;9.30;58.37
68822;BME280;55834;50.870;4.606;2023-01-05T07:11:25;101429.44;;;8.68;60.67
68822;BME280;55834;50.870;4.606;2023-01-05T07:13:50;101426.81;;;8.68;60.24
68822;BME280;55834;50.870;4.606;2023-01-05T07:16:16;101423.66;;;8.24;61.36
68822;BME280;55834;50.870;4.606;2023-01-05T07:18:42;101412.81;;;8.66;60.69
68822;BME280;55834;50.870;4.606;2023-01-05T07:21:08;101415.66;;;8.43;60.92
68822;BME280;55834;50.870;4.606;2023-01-05T07:23:33;101430.84;;;7.99;62.07
68822;BME280;55834;50.870;4.606;2023-01-05T07:26:02;101417.53;;;8.25;61.76
68822;BME280;55834;50.870;4.606;2023-01-05T07:28:28;101430.44;;;8.54;60.17
68822;BME280;55834;50.870;4.606;2023-01-05T07:30:53;101427.75;;;8.59;60.55
68822;BME280;55834;50.870;4.606;2023-01-05T07:33:19;101441.13;;;8.33;60.98
68822;BME280;55834;50.870;4.606;2023-01-05T07:35:44;101434.31;;;8.09;62.21
68822;BME280;55834;50.870;4.606;2023-01-05T07:38:09;101435.13;;;8.16;61.99
68822;BME280;55834;50.870;4.606;2023-01-05T07:40:35;101440.94;;;8.57;60.63
68822;BME280;55834;50.870;4.606;2023-01-05T07:43:01;101446.78;;;8.90;59.76
68822;BME280;55834;50.870;4.606;2023-01-05T07:45:26;101449.06;;;9.22;58.56
68822;BME280;55834;50.870;4.606;2023-01-05T07:47:52;101450.59;;;9.43;58.17
68822;BME280;55834;50.870;4.606;2023-01-05T07:50:17;101464.13;;;8.03;60.68
68822;BME280;55834;50.870;4.606;2023-01-05T07:52:42;101464.81;;;8.34;60.59
68822;BME280;55834;50.870;4.606;2023-01-05T07:55:08;101462.25;;;8.24;60.66
68822;BME280;55834;50.870;4.606;2023-01-05T07:57:33;101470.09;;;8.34;61.42
68822;BME280;55834;50.870;4.606;2023-01-05T07:59:59;101474.22;;;8.65;59.84
68822;BME280;55834;50.870;4.606;2023-01-05T08:02:24;101467.31;;;8.50;60.91
68822;BME280;55834;50.870;4.606;2023-01-05T08:04:51;101473.84;;;7.84;62.58
68822;BME280;55834;50.870;4.606;2023-01-05T08:07:17;101479.91;;;8.02;62.40
68822;BME280;55834;50.870;4.606;2023-01-05T08:09:42;101493.66;;;8.51;60.68
68822;BME280;55834;50.870;4.606;2023-01-05T08:12:27;101489.72;;;8.97;58.79
68822;BME280;55834;50.870;4.606;2023-01-05T08:14:53;101489.09;;;8.70;59.49
68822;BME280;55834;50.870;4.606;2023-01-05T08:17:18;101478.78;;;9.38;58.51
68822;BME280;55834;50.870;4.606;2023-01-05T08:19:44;101478.44;;;9.67;57.64
68822;BME280;55834;50.870;4.606;2023-01-05T08:22:10;101472.13;;;9.79;57.28
68822;BME280;55834;50.870;4.606;2023-01-05T08:24:35;101479.00;;;9.91;56.39
68822;BME280;55834;50.870;4.606;2023-01-05T08:27:00;101475.44;;;9.92;56.56
68822;BME280;55834;50.870;4.606;2023-01-05T08:29:26;101482.34;;;9.36;57.65
68822;BME280;55834;50.870;4.606;2023-01-05T08:31:52;101484.09;;;9.32;57.92
68822;BME280;55834;50.870;4.606;2023-01-05T08:34:17;101485.88;;;9.32;58.38
68822;BME280;55834;50.870;4.606;2023-01-05T08:36:42;101486.00;;;9.18;58.26
68822;BME280;55834;50.870;4.606;2023-01-05T08:39:09;101484.06;;;9.38;58.47
68822;BME280;55834;50.870;4.606;2023-01-05T08:41:36;101490.75;;;9.67;58.07
68822;BME280;55834;50.870;4.606;2023-01-05T08:44:09;101506.06;;;9.31;59.04
68822;BME280;55834;50.870;4.606;2023-01-05T08:46:35;101504.53;;;9.10;59.49
68822;BME280;55834;50.870;4.606;2023-01-05T08:49:04;101495.34;;;9.48;58.29
68822;BME280;55834;50.870;4.606;2023-01-05T08:51:30;101500.03;;;9.20;58.96
68822;BME280;55834;50.870;4.606;2023-01-05T08:53:57;101509.28;;;8.70;60.38
68822;BME280;55834;50.870;4.606;2023-01-05T08:56:23;101507.28;;;8.98;59.84
68822;BME280;55834;50.870;4.606;2023-01-05T08:58:50;101509.47;;;9.42;59.20
68822;BME280;55834;50.870;4.606;2023-01-05T09:01:18;101506.41;;;8.94;60.49
68822;BME280;55834;50.870;4.606;2023-01-05T09:03:43;101514.22;;;9.05;59.20
68822;BME280;55834;50.870;4.606;2023-01-05T09:06:10;101516.75;;;9.14;59.65
68822;BME280;55834;50.870;4.606;2023-01-05T09:08:36;101522.31;;;8.85;59.69
68822;BME280;55834;50.870;4.606;2023-01-05T09:13:36;101525.06;;;8.70;61.97
68822;BME280;55834;50.870;4.606;2023-01-05T09:16:09;101513.31;;;9.09;60.32
68822;BME280;55834;50.870;4.606;2023-01-05T09:18:35;101527.09;;;9.39;58.77
68822;BME280;55834;50.870;4.606;2023-01-05T09:21:01;101527.19;;;9.26;59.00
68822;BME280;55834;50.870;4.606;2023-01-05T09:23:26;101528.03;;;9.28;59.30
68822;BME280;55834;50.870;4.606;2023-01-05T09:25:52;101524.31;;;9.53;58.02
68822;BME280;55834;50.870;4.606;2023-01-05T09:28:17;101520.53;;;9.72;57.76
68822;BME280;55834;50.870;4.606;2023-01-05T09:30:42;101520.75;;;9.57;58.74
68822;BME280;55834;50.870;4.606;2023-01-05T09:33:08;101535.06;;;9.33;59.90
68822;BME280;55834;50.870;4.606;2023-01-05T09:35:33;101536.19;;;9.02;60.48
68822;BME280;55834;50.870;4.606;2023-01-05T09:37:58;101519.63;;;9.76;58.54
68822;BME280;55834;50.870;4.606;2023-01-05T09:40:24;101529.84;;;9.23;60.17
68822;BME280;55834;50.870;4.606;2023-01-05T09:42:50;101526.81;;;9.63;58.18
68822;BME280;55834;50.870;4.606;2023-01-05T09:45:23;101536.97;;;9.14;59.47
68822;BME280;55834;50.870;4.606;2023-01-05T09:47:51;101533.69;;;9.75;58.29
68822;BME280;55834;50.870;4.606;2023-01-05T09:50:19;101544.88;;;9.14;59.68
68822;BME280;55834;50.870;4.606;2023-01-05T09:52:44;101542.97;;;9.28;60.21
68822;BME280;55834;50.870;4.606;2023-01-05T09:55:17;101537.38;;;9.62;58.63
68822;BME280;55834;50.870;4.606;2023-01-05T09:57:55;101546.47;;;9.30;59.52
68822;BME280;55834;50.870;4.606;2023-01-05T10:00:22;101541.22;;;9.33;59.17
68822;BME280;55834;50.870;4.606;2023-01-05T10:02:54;101539.16;;;9.61;57.97
68822;BME280;55834;50.870;4.606;2023-01-05T10:05:23;101541.72;;;9.66;57.88
68822;BME280;55834;50.870;4.606;2023-01-05T10:08:02;101547.72;;;8.91;60.93
68822;BME280;55834;50.870;4.606;2023-01-05T10:10:41;101549.97;;;9.31;59.33
68822;BME280;55834;50.870;4.606;2023-01-05T10:13:18;101551.69;;;9.39;59.30
68822;BME280;55834;50.870;4.606;2023-01-05T10:15:48;101533.97;;;9.52;58.72
68822;BME280;55834;50.870;4.606;2023-01-05T10:18:26;101549.16;;;9.27;58.41
68822;BME280;55834;50.870;4.606;2023-01-05T10:21:26;101546.13;;;9.64;58.86
68822;BME280;55834;50.870;4.606;2023-01-05T10:26:49;101546.38;;;9.44;58.54
68822;BME280;55834;50.870;4.606;2023-01-05T10:29:24;101533.66;;;9.78;58.24
68822;BME280;55834;50.870;4.606;2023-01-05T10:35:29;101549.44;;;9.83;57.34
68822;BME280;55834;50.870;4.606;2023-01-05T10:38:20;101549.81;;;9.51;58.47
68822;BME280;55834;50.870;4.606;2023-01-05T10:41:13;101549.66;;;9.64;57.90
68822;BME280;55834;50.870;4.606;2023-01-05T10:46:20;101549.44;;;9.81;58.08
68822;BME280;55834;50.870;4.606;2023-01-05T10:48:45;101557.78;;;9.43;57.39
68822;BME280;55834;50.870;4.606;2023-01-05T10:51:11;101555.13;;;9.46;58.40
68822;BME280;55834;50.870;4.606;2023-01-05T10:53:39;101544.41;;;9.63;57.62
68822;BME280;55834;50.870;4.606;2023-01-05T10:56:14;101548.59;;;9.79;57.77
68822;BME280;55834;50.870;4.606;2023-01-05T10:58:42;101545.25;;;9.63;57.84
68822;BME280;55834;50.870;4.606;2023-01-05T11:01:26;101541.09;;;10.16;56.89
68822;BME280;55834;50.870;4.606;2023-01-05T11:04:06;101549.44;;;9.81;56.54
68822;BME280;55834;50.870;4.606;2023-01-05T11:06:34;101548.00;;;9.54;58.42
68822;BME280;55834;50.870;4.606;2023-01-05T11:09:22;101535.63;;;9.61;57.85
68822;BME280;55834;50.870;4.606;2023-01-05T11:12:20;101545.53;;;9.39;57.43
68822;BME280;55834;50.870;4.606;2023-01-05T11:14:56;101539.63;;;9.92;56.23
68822;BME280;55834;50.870;4.606;2023-01-05T11:17:24;101537.25;;;10.37;55.87
68822;BME280;55834;50.870;4.606;2023-01-05T11:19:55;101530.69;;;10.66;55.58
68822;BME280;55834;50.870;4.606;2023-01-05T11:22:38;101533.22;;;10.72;54.85
68822;BME280;55834;50.870;4.606;2023-01-05T11:25:25;101532.03;;;10.34;55.99
68822;BME280;55834;50.870;4.606;2023-01-05T11:30:36;101524.50;;;10.67;55.57
68822;BME280;55834;50.870;4.606;2023-01-05T11:33:01;101523.75;;;10.60;55.06
68822;BME280;55834;50.870;4.606;2023-01-05T11:35:33;101521.91;;;10.64;55.27
68822;BME280;55834;50.870;4.606;2023-01-05T11:38:00;101517.69;;;10.54;55.43
68822;BME280;55834;50.870;4.606;2023-01-05T11:40:33;101531.88;;;10.42;55.33
68822;BME280;55834;50.870;4.606;2023-01-05T11:42:59;101526.00;;;10.83;55.42
68822;BME280;55834;50.870;4.606;2023-01-05T11:45:39;101529.44;;;9.63;57.38
68822;BME280;55834;50.870;4.606;2023-01-05T11:48:15;101531.00;;;8.98;60.18
68822;BME280;55834;50.870;4.606;2023-01-05T11:50:46;101524.16;;;9.65;58.69
68822;BME280;55834;50.870;4.606;2023-01-05T11:58:42;101520.41;;;10.45;56.05
68822;BME280;55834;50.870;4.606;2023-01-05T12:04:21;101513.22;;;11.08;56.31
68822;BME280;55834;50.870;4.606;2023-01-05T12:07:05;101504.47;;;11.05;55.70
68822;BME280;55834;50.870;4.606;2023-01-05T12:09:43;101509.91;;;10.42;57.40
68822;BME280;55834;50.870;4.606;2023-01-05T12:12:27;101508.00;;;10.53;57.52
68822;BME280;55834;50.870;4.606;2023-01-05T12:23:18;101498.25;;;11.07;55.46
68822;BME280;55834;50.870;4.606;2023-01-05T12:25:57;101502.72;;;10.54;55.76
68822;BME280;55834;50.870;4.606;2023-01-05T12:28:48;101490.69;;;10.89;56.63
68822;BME280;55834;50.870;4.606;2023-01-05T12:34:37;101491.41;;;9.84;58.71
68822;BME280;55834;50.870;4.606;2023-01-05T12:37:19;101501.50;;;9.48;60.45
68822;BME280;55834;50.870;4.606;2023-01-05T12:40:02;101500.31;;;9.72;59.10
68822;BME280;55834;50.870;4.606;2023-01-05T12:45:24;101489.25;;;10.71;58.50
68822;BME280;55834;50.870;4.606;2023-01-05T12:47:59;101486.09;;;11.00;57.21
68822;BME280;55834;50.870;4.606;2023-01-05T12:50:33;101489.66;;;10.98;57.16
68822;BME280;55834;50.870;4.606;2023-01-05T12:55:39;101487.75;;;11.04;56.80
68822;BME280;55834;50.870;4.606;2023-01-05T12:58:22;101493.13;;;10.46;58.56
68822;BME280;55834;50.870;4.606;2023-01-05T13:00:49;101489.66;;;10.98;57.85
68822;BME280;55834;50.870;4.606;2023-01-05T13:06:08;101471.31;;;10.33;59.20
68822;BME280;55834;50.870;4.606;2023-01-05T13:11:12;101478.06;;;11.05;58.55
68822;BME280;55834;50.870;4.606;2023-01-05T13:13:46;101480.28;;;10.78;58.78
68822;BME280;55834;50.870;4.606;2023-01-05T13:16:28;101471.03;;;11.04;58.25
68822;BME280;55834;50.870;4.606;2023-01-05T13:19:03;101476.44;;;10.98;58.49
68822;BME280;55834;50.870;4.606;2023-01-05T13:21:30;101475.34;;;11.10;58.09
68822;BME280;55834;50.870;4.606;2023-01-05T13:24:11;101473.47;;;10.67;59.93
68822;BME280;55834;50.870;4.606;2023-01-05T13:26:39;101475.88;;;10.23;62.75
68822;BME280;55834;50.870;4.606;2023-01-05T13:29:04;101470.34;;;10.38;61.62
68822;BME280;55834;50.870;4.606;2023-01-05T13:40:04;101455.13;;;11.05;60.19
68822;BME280;55834;50.870;4.606;2023-01-05T13:53:17;101465.75;;;11.04;62.28
68822;BME280;55834;50.870;4.606;2023-01-05T13:58:40;101454.03;;;11.17;62.26
68822;BME280;55834;50.870;4.606;2023-01-05T14:01:16;101452.63;;;11.43;61.65
68822;BME280;55834;50.870;4.606;2023-01-05T14:03:49;101461.88;;;11.23;60.94
68822;BME280;55834;50.870;4.606;2023-01-05T14:06:17;101448.47;;;11.33;62.15
68822;BME280;55834;50.870;4.606;2023-01-05T14:08:56;101446.41;;;11.47;61.35
68822;BME280;55834;50.870;4.606;2023-01-05T14:11:24;101439.34;;;11.47;61.72
68822;BME280;55834;50.870;4.606;2023-01-05T14:13:56;101443.59;;;11.56;61.43
68822;BME280;55834;50.870;4.606;2023-01-05T14:19:21;101443.81;;;11.44;62.36
68822;BME280;55834;50.870;4.606;2023-01-05T14:35:21;101451.72;;;11.45;61.96
68822;BME280;55834;50.870;4.606;2023-01-05T14:37:51;101440.94;;;11.56;62.55
68822;BME280;55834;50.870;4.606;2023-01-05T14:40:38;101445.19;;;11.63;61.88
68822;BME280;55834;50.870;4.606;2023-01-05T14:43:26;101444.25;;;11.66;61.11
68822;BME280;55834;50.870;4.606;2023-01-05T14:45:59;101438.34;;;11.53;62.71
68822;BME280;55834;50.870;4.606;2023-01-05T14:48:48;;;;10.96;
68822;BME280;55834;50.870;4.606;2023-01-05T14:51:34;101448.47;;;10.86;64.48
68822;BME280;55834;50.870;4.606;2023-01-05T14:54:03;101454.09;;;11.14;64.63